createdAt,value
2023-05-10T00:00:26.330Z,26.77
2023-05-10T00:01:26.416Z,26.36
2023-05-10T00:02:26.405Z,26.76
2023-05-10T00:03:26.592Z,26.11
2023-05-10T00:04:26.468Z,25.76
2023-05-10T00:05:26.638Z,25.65
2023-05-10T00:06:26.562Z,26.06
2023-05-10T00:07:26.575Z,25.77
2023-05-10T00:08:26.651Z,25.91
2023-05-10T00:09:26.674Z,25.78
2023-05-10T00:10:26.954Z,25.92
2023-05-10T00:11:26.848Z,25.48
2023-05-10T00:12:27.795Z,25.24
2023-05-10T00:13:26.937Z,24.92
2023-05-10T00:14:26.880Z,25.11
2023-05-10T00:15:26.910Z,24.94
2023-05-10T00:16:26.984Z,24.87
2023-05-10T00:17:27.196Z,24.53
2023-05-10T00:18:27.032Z,24.91
2023-05-10T00:19:27.060Z,25.11
2023-05-10T00:20:27.117Z,25.16
2023-05-10T00:21:27.175Z,25.08
2023-05-10T00:22:27.226Z,25.13
2023-05-10T00:23:27.258Z,25.41
2023-05-10T00:24:27.320Z,24.82
2023-05-10T00:25:27.369Z,25.07
2023-05-10T00:26:27.431Z,24.61
2023-05-10T00:27:27.655Z,24.48
2023-05-10T00:28:27.512Z,24.59
2023-05-10T00:29:27.573Z,23.86
2023-05-10T00:30:27.601Z,24.19
2023-05-10T00:31:27.717Z,23.84
2023-05-10T00:32:27.725Z,24.31
2023-05-10T00:33:27.758Z,24.38
2023-05-10T00:34:27.806Z,24.02
2023-05-10T00:35:27.833Z,23.85
2023-05-10T00:36:27.889Z,24.06
2023-05-10T00:37:27.937Z,23.86
2023-05-10T00:38:27.971Z,23.96
2023-05-10T00:39:28.016Z,23.79
2023-05-10T00:40:28.057Z,23.83
2023-05-10T00:41:28.265Z,24.11
2023-05-10T00:42:28.161Z,23.65
2023-05-10T00:43:28.226Z,23.87
2023-05-10T00:44:28.264Z,23.56
2023-05-10T00:45:28.294Z,23.78
2023-05-10T00:46:28.419Z,22.94
2023-05-10T00:47:28.595Z,23.23
2023-05-10T00:48:28.596Z,22.98
2023-05-10T00:49:28.480Z,23.38
2023-05-10T00:50:28.530Z,23.01
2023-05-10T00:51:28.586Z,23.00
2023-05-10T00:52:28.839Z,22.86
2023-05-10T00:53:28.886Z,22.88
2023-05-10T00:54:28.786Z,22.61
2023-05-10T00:55:28.721Z,23.00
2023-05-10T00:56:28.775Z,22.52
2023-05-10T00:57:28.834Z,21.84
2023-05-10T00:58:28.889Z,21.62
2023-05-10T00:59:29.113Z,21.87
2023-05-10T01:00:28.957Z,21.97
2023-05-10T01:01:29.059Z,22.09
2023-05-10T01:02:29.147Z,21.97
2023-05-10T01:03:29.251Z,21.57
2023-05-10T01:04:29.213Z,21.55
2023-05-10T01:05:29.203Z,21.11
2023-05-10T01:06:29.237Z,21.48
2023-05-10T01:07:29.296Z,21.35
2023-05-10T01:08:29.356Z,21.43
2023-05-10T01:09:29.378Z,21.76
2023-05-10T01:10:29.418Z,21.32
2023-05-10T01:11:29.508Z,21.72
2023-05-10T01:12:29.738Z,21.20
2023-05-10T01:13:29.624Z,21.19
2023-05-10T01:14:29.608Z,21.05
2023-05-10T01:15:29.667Z,21.18
2023-05-10T01:16:29.742Z,21.02
2023-05-10T01:17:29.775Z,21.20
2023-05-10T01:18:29.804Z,21.60
2023-05-10T01:19:29.837Z,21.56
2023-05-10T01:20:29.881Z,21.31
2023-05-10T01:21:29.944Z,21.35
2023-05-10T01:22:29.978Z,20.90
2023-05-10T01:23:30.061Z,20.69
2023-05-10T01:24:30.054Z,20.63
2023-05-10T01:25:30.135Z,20.73
2023-05-10T01:26:30.179Z,20.81
2023-05-10T01:27:30.213Z,20.79
2023-05-10T01:28:30.297Z,21.31
2023-05-10T01:29:30.307Z,21.16
2023-05-10T01:30:30.330Z,21.49
2023-05-10T01:31:30.394Z,21.04
2023-05-10T01:32:30.465Z,21.01
2023-05-10T01:33:30.511Z,21.65
2023-05-10T01:34:30.587Z,21.87
2023-05-10T01:35:30.571Z,21.67
2023-05-10T01:36:30.638Z,21.59
2023-05-10T01:37:30.815Z,21.55
2023-05-10T01:38:30.961Z,21.23
2023-05-10T01:39:30.833Z,20.99
2023-05-10T01:40:30.821Z,20.50
2023-05-10T01:41:31.021Z,20.32
2023-05-10T01:42:30.929Z,20.16
2023-05-10T01:43:30.989Z,20.01
2023-05-10T01:44:31.021Z,19.65
2023-05-10T01:45:31.073Z,19.34
2023-05-10T01:46:31.191Z,19.03
2023-05-10T01:47:31.181Z,18.84
2023-05-10T01:48:31.199Z,18.95
2023-05-10T01:49:31.272Z,18.55
2023-05-10T01:50:31.416Z,18.49
2023-05-10T01:51:31.469Z,18.01
2023-05-10T01:52:31.411Z,18.04
2023-05-10T01:53:31.485Z,17.57
2023-05-10T01:54:31.511Z,17.60
2023-05-10T01:55:31.593Z,17.49
2023-05-10T01:56:31.654Z,17.39
2023-05-10T01:57:31.647Z,16.89
2023-05-10T01:58:31.724Z,16.49
2023-05-10T01:59:31.765Z,17.10
2023-05-10T02:00:31.888Z,17.34
2023-05-10T02:01:32.033Z,17.31
2023-05-10T02:02:31.954Z,17.27
2023-05-10T02:03:32.047Z,17.34
2023-05-10T02:04:32.060Z,16.90
2023-05-10T02:05:32.203Z,16.60
2023-05-10T02:06:32.367Z,16.70
2023-05-10T02:07:32.511Z,17.41
2023-05-10T02:08:32.779Z,16.85
2023-05-10T02:09:32.911Z,16.76
2023-05-10T02:10:33.150Z,16.51
2023-05-10T02:11:33.231Z,16.84
2023-05-10T02:12:33.389Z,16.96
2023-05-10T02:13:33.406Z,16.53
2023-05-10T02:14:33.570Z,16.53
2023-05-10T02:15:33.636Z,16.90
2023-05-10T02:16:33.696Z,16.84
2023-05-10T02:17:33.668Z,16.68
2023-05-10T02:18:33.632Z,16.72
2023-05-10T02:19:33.607Z,16.48
2023-05-10T02:20:33.643Z,16.80
2023-05-10T02:21:33.604Z,16.45
2023-05-10T02:22:33.585Z,16.22
2023-05-10T02:23:33.607Z,16.58
2023-05-10T02:24:33.791Z,16.73
2023-05-10T02:25:33.741Z,16.20
2023-05-10T02:26:33.741Z,16.10
2023-05-10T02:27:33.780Z,16.12
2023-05-10T02:28:33.658Z,15.78
2023-05-10T02:29:33.548Z,15.49
2023-05-10T02:30:33.601Z,15.05
2023-05-10T02:31:33.706Z,14.82
2023-05-10T02:32:33.526Z,14.81
2023-05-10T02:33:33.544Z,14.57
2023-05-10T02:34:33.507Z,14.27
2023-05-10T02:35:33.502Z,14.62
2023-05-10T02:36:33.479Z,14.21
2023-05-10T02:37:33.470Z,13.77
2023-05-10T02:38:33.497Z,13.56
2023-05-10T02:39:33.518Z,14.24
2023-05-10T02:40:33.512Z,14.11
2023-05-10T02:41:33.458Z,13.97
2023-05-10T02:42:33.459Z,13.66
2023-05-10T02:43:33.471Z,14.08
2023-05-10T02:44:33.431Z,14.13
2023-05-10T02:45:33.524Z,14.04
2023-05-10T02:46:33.670Z,14.03
2023-05-10T02:47:33.620Z,13.64
2023-05-10T02:48:33.411Z,13.59
2023-05-10T02:49:33.411Z,13.40
2023-05-10T02:50:33.451Z,13.58
2023-05-10T02:51:33.396Z,13.68
2023-05-10T02:52:33.362Z,13.64
2023-05-10T02:53:33.378Z,13.55
2023-05-10T02:54:33.354Z,13.24
2023-05-10T02:55:33.376Z,13.35
2023-05-10T02:56:33.344Z,13.45
2023-05-10T02:57:33.342Z,13.25
2023-05-10T02:58:33.374Z,12.68
2023-05-10T02:59:33.336Z,12.80
2023-05-10T03:00:33.371Z,13.10
2023-05-10T03:01:33.393Z,13.06
2023-05-10T03:02:33.549Z,13.49
2023-05-10T03:03:33.464Z,13.35
2023-05-10T03:04:33.560Z,12.88
2023-05-10T03:05:33.559Z,12.62
2023-05-10T03:06:33.574Z,12.30
2023-05-10T03:07:33.733Z,12.21
2023-05-10T03:08:33.652Z,12.69
2023-05-10T03:09:33.664Z,12.24
2023-05-10T03:10:33.675Z,12.21
2023-05-10T03:11:33.850Z,12.39
2023-05-10T03:12:33.887Z,12.53
2023-05-10T03:13:34.146Z,12.58
2023-05-10T03:14:33.901Z,12.50
2023-05-10T03:15:33.935Z,12.60
2023-05-10T03:16:34.027Z,12.49
2023-05-10T03:17:34.066Z,12.29
2023-05-10T03:18:34.112Z,12.45
2023-05-10T03:19:34.326Z,12.34
2023-05-10T03:20:34.222Z,12.16
2023-05-10T03:21:34.281Z,12.05
2023-05-10T03:22:34.350Z,12.05
2023-05-10T03:23:34.591Z,12.28
2023-05-10T03:24:34.476Z,11.90
2023-05-10T03:25:34.514Z,11.90
2023-05-10T03:26:34.611Z,11.68
2023-05-10T03:27:34.626Z,11.85
2023-05-10T03:28:34.664Z,11.77
2023-05-10T03:29:34.709Z,11.62
2023-05-10T03:30:34.780Z,11.66
2023-05-10T03:31:34.980Z,11.89
2023-05-10T03:32:34.895Z,11.85
2023-05-10T03:33:34.925Z,12.30
2023-05-10T03:34:34.988Z,12.05
2023-05-10T03:35:34.989Z,12.25
2023-05-10T03:36:35.039Z,12.13
2023-05-10T03:37:35.118Z,11.94
2023-05-10T03:38:35.136Z,12.03
2023-05-10T03:39:35.186Z,12.00
2023-05-10T03:40:35.244Z,12.06
2023-05-10T03:41:35.301Z,12.41
2023-05-10T03:42:35.361Z,12.42
2023-05-10T03:43:35.537Z,12.35
2023-05-10T03:44:35.452Z,12.51
2023-05-10T03:45:35.519Z,12.49
2023-05-10T03:46:35.597Z,12.25
2023-05-10T03:47:35.639Z,12.34
2023-05-10T03:48:35.668Z,12.46
2023-05-10T03:49:35.721Z,12.34
2023-05-10T03:50:35.777Z,12.07
2023-05-10T03:51:35.978Z,12.24
2023-05-10T03:52:35.889Z,12.38
2023-05-10T03:53:35.931Z,12.07
2023-05-10T03:54:36.022Z,11.94
2023-05-10T03:55:35.993Z,11.91
2023-05-10T03:56:36.036Z,11.77
2023-05-10T03:57:36.100Z,11.74
2023-05-10T03:58:36.153Z,11.74
2023-05-10T03:59:36.201Z,11.83
2023-05-10T04:00:36.257Z,11.86
2023-05-10T04:01:36.418Z,11.61
2023-05-10T04:02:36.461Z,11.42
2023-05-10T04:03:36.523Z,11.01
2023-05-10T04:04:36.639Z,11.19
2023-05-10T04:05:36.518Z,11.08
2023-05-10T04:06:36.600Z,11.07
2023-05-10T04:07:36.581Z,11.00
2023-05-10T04:08:36.651Z,11.15
2023-05-10T04:09:36.701Z,10.85
2023-05-10T04:10:36.756Z,10.85
2023-05-10T04:11:36.827Z,10.81
2023-05-10T04:12:36.862Z,10.84
2023-05-10T04:13:36.943Z,10.65
2023-05-10T04:14:37.008Z,10.57
2023-05-10T04:15:37.044Z,10.36
2023-05-10T04:16:37.178Z,10.35
2023-05-10T04:17:37.212Z,10.27
2023-05-10T04:18:37.221Z,10.26
2023-05-10T04:19:37.384Z,10.09
2023-05-10T04:20:37.337Z,10.02
2023-05-10T04:21:37.400Z,9.94
2023-05-10T04:22:37.450Z,9.87
2023-05-10T04:23:37.516Z,10.04
2023-05-10T04:24:37.588Z,9.83
2023-05-10T04:25:37.640Z,9.99
2023-05-10T04:26:37.708Z,9.84
2023-05-10T04:27:37.732Z,9.94
2023-05-10T04:28:37.764Z,9.91
2023-05-10T04:29:37.830Z,9.93
2023-05-10T04:30:37.922Z,9.81
2023-05-10T04:31:38.113Z,10.01
2023-05-10T04:32:38.032Z,9.89
2023-05-10T04:33:38.088Z,9.65
2023-05-10T04:34:38.126Z,9.66
2023-05-10T04:35:38.182Z,9.72
2023-05-10T04:36:38.233Z,9.72
2023-05-10T04:37:38.302Z,9.55
2023-05-10T04:38:38.315Z,9.58
2023-05-10T04:39:40.229Z,9.38
2023-05-10T04:40:38.351Z,9.31
2023-05-10T04:41:38.339Z,9.19
2023-05-10T04:42:38.361Z,9.41
2023-05-10T04:43:38.332Z,9.47
2023-05-10T04:44:38.468Z,9.28
2023-05-10T04:45:38.312Z,9.16
2023-05-10T04:46:38.552Z,9.33
2023-05-10T04:47:38.548Z,9.23
2023-05-10T04:48:38.321Z,9.28
2023-05-10T04:49:38.310Z,9.23
2023-05-10T04:50:38.285Z,9.36
2023-05-10T04:51:38.275Z,9.33
2023-05-10T04:52:38.269Z,9.47
2023-05-10T04:53:38.276Z,9.73
2023-05-10T04:54:38.260Z,9.71
2023-05-10T04:55:38.247Z,9.77
2023-05-10T04:56:38.269Z,9.63
2023-05-10T04:57:38.240Z,9.74
2023-05-10T04:58:38.248Z,9.70
2023-05-10T04:59:38.267Z,9.92
2023-05-10T05:00:38.247Z,10.01
2023-05-10T05:01:38.268Z,9.98
2023-05-10T05:02:38.310Z,9.98
2023-05-10T05:03:38.324Z,10.09
2023-05-10T05:04:38.198Z,10.12
2023-05-10T05:05:38.206Z,10.07
2023-05-10T05:06:38.180Z,9.77
2023-05-10T05:07:38.169Z,9.68
2023-05-10T05:08:38.180Z,9.94
2023-05-10T05:09:38.172Z,9.96
2023-05-10T05:10:38.160Z,9.82
2023-05-10T05:11:38.161Z,10.01
2023-05-10T05:12:38.134Z,10.00
2023-05-10T05:13:38.143Z,10.24
2023-05-10T05:14:38.133Z,10.38
2023-05-10T05:15:38.110Z,10.64
2023-05-10T05:16:38.129Z,10.62
2023-05-10T05:17:38.240Z,10.96
2023-05-10T05:18:38.220Z,11.24
2023-05-10T05:19:38.291Z,11.35
2023-05-10T05:20:38.322Z,11.26
2023-05-10T05:21:38.404Z,11.40
2023-05-10T05:22:38.459Z,11.07
2023-05-10T05:23:38.517Z,10.83
2023-05-10T05:24:38.584Z,10.88
2023-05-10T05:25:38.626Z,10.96
2023-05-10T05:26:38.684Z,11.08
2023-05-10T05:27:38.730Z,11.32
2023-05-10T05:28:38.800Z,12.57
2023-05-10T05:29:38.827Z,13.43
2023-05-10T05:30:38.877Z,14.50
2023-05-10T05:31:38.955Z,15.74
2023-05-10T05:32:38.992Z,16.81
2023-05-10T05:33:39.040Z,19.04
2023-05-10T05:34:39.103Z,21.71
2023-05-10T05:35:39.155Z,23.89
2023-05-10T05:36:39.229Z,26.06
2023-05-10T05:37:39.253Z,30.14
2023-05-10T05:38:39.291Z,32.85
2023-05-10T05:39:39.373Z,35.43
2023-05-10T05:40:39.379Z,37.91
2023-05-10T05:41:39.427Z,41.12
2023-05-10T05:42:39.489Z,43.36
2023-05-10T05:43:39.517Z,46.22
2023-05-10T05:44:39.568Z,49.88
2023-05-10T05:45:39.631Z,52.53
2023-05-10T05:46:39.601Z,54.91
2023-05-10T05:47:39.654Z,57.90
2023-05-10T05:48:39.695Z,59.34
2023-05-10T05:49:40.237Z,63.40
2023-05-10T05:50:39.724Z,63.85
2023-05-10T05:51:39.762Z,65.98
2023-05-10T05:52:39.786Z,68.33
2023-05-10T05:53:39.806Z,71.38
2023-05-10T05:54:39.837Z,73.61
2023-05-10T05:55:39.828Z,73.35
2023-05-10T05:56:39.859Z,74.15
2023-05-10T05:57:39.865Z,72.82
2023-05-10T05:58:39.892Z,72.31
2023-05-10T05:59:39.893Z,72.97
2023-05-10T06:00:39.953Z,72.38
2023-05-10T06:01:39.965Z,71.96
2023-05-10T06:02:40.067Z,72.67
2023-05-10T06:03:40.011Z,71.38
2023-05-10T06:04:40.160Z,71.20
2023-05-10T06:05:40.688Z,71.06
2023-05-10T06:06:39.997Z,71.91
2023-05-10T06:07:39.972Z,71.52
2023-05-10T06:08:39.997Z,71.22
2023-05-10T06:09:40.010Z,70.24
2023-05-10T06:10:40.041Z,79.54
2023-05-10T06:11:40.020Z,93.61
2023-05-10T06:12:40.039Z,89.47
2023-05-10T06:13:40.042Z,83.05
2023-05-10T06:14:40.201Z,66.74
2023-05-10T06:15:40.053Z,65.95
2023-05-10T06:16:40.120Z,68.69
2023-05-10T06:17:40.149Z,68.80
2023-05-10T06:18:40.097Z,66.96
2023-05-10T06:19:40.188Z,67.55
2023-05-10T06:20:40.103Z,68.70
2023-05-10T06:21:40.106Z,68.88
2023-05-10T06:22:40.099Z,70.81
2023-05-10T06:23:40.099Z,72.60
2023-05-10T06:24:40.135Z,75.02
2023-05-10T06:25:40.130Z,75.37
2023-05-10T06:26:40.154Z,81.00
2023-05-10T06:27:40.175Z,91.54
2023-05-10T06:28:40.252Z,95.07
2023-05-10T06:29:40.298Z,101.95
2023-05-10T06:30:40.734Z,101.66
2023-05-10T06:31:40.502Z,102.25
2023-05-10T06:32:40.459Z,102.44
2023-05-10T06:33:40.497Z,109.55
2023-05-10T06:34:40.705Z,108.83
2023-05-10T06:35:40.592Z,105.38
2023-05-10T06:36:40.630Z,97.83
2023-05-10T06:37:40.748Z,99.03
2023-05-10T06:38:40.680Z,87.30
2023-05-10T06:39:41.215Z,70.31
2023-05-10T06:40:40.773Z,52.93
2023-05-10T06:41:40.801Z,40.05
2023-05-10T06:42:40.857Z,26.44
2023-05-10T06:43:40.870Z,24.30
2023-05-10T06:44:40.893Z,24.42
2023-05-10T06:45:41.695Z,20.16
2023-05-10T06:46:40.944Z,20.06
2023-05-10T06:47:41.032Z,21.12
2023-05-10T06:48:41.232Z,20.68
2023-05-10T06:49:40.929Z,18.69
2023-05-10T06:50:40.999Z,17.91
2023-05-10T06:51:41.020Z,17.41
2023-05-10T06:52:41.050Z,15.49
2023-05-10T06:53:41.117Z,15.60
2023-05-10T06:54:41.117Z,15.52
2023-05-10T06:55:41.146Z,15.02
2023-05-10T06:56:41.177Z,16.26
2023-05-10T06:57:41.165Z,15.03
2023-05-10T06:58:41.191Z,14.77
2023-05-10T06:59:41.372Z,15.09
2023-05-10T07:00:41.616Z,14.74
2023-05-10T07:01:41.752Z,14.86
2023-05-10T07:02:41.953Z,13.89
2023-05-10T07:03:42.006Z,13.73
2023-05-10T07:04:42.244Z,13.58
2023-05-10T07:05:42.418Z,13.08
2023-05-10T07:06:42.489Z,13.60
2023-05-10T07:07:42.638Z,13.36
2023-05-10T07:08:42.796Z,15.54
2023-05-10T07:09:42.915Z,21.52
2023-05-10T07:10:43.064Z,24.80
2023-05-10T07:11:43.197Z,28.16
2023-05-10T07:12:43.401Z,32.50
2023-05-10T07:13:43.576Z,34.41
2023-05-10T07:14:43.768Z,35.81
2023-05-10T07:15:43.800Z,37.88
2023-05-10T07:16:43.936Z,40.03
2023-05-10T07:17:45.918Z,41.72
2023-05-10T07:18:44.070Z,42.66
2023-05-10T07:19:43.994Z,44.17
2023-05-10T07:20:44.015Z,46.15
2023-05-10T07:21:44.038Z,47.16
2023-05-10T07:22:44.046Z,48.72
2023-05-10T07:23:45.197Z,50.12
2023-05-10T07:24:44.050Z,51.42
2023-05-10T07:25:44.054Z,51.25
2023-05-10T07:26:44.261Z,45.97
2023-05-10T07:27:44.060Z,44.11
2023-05-10T07:28:44.068Z,45.07
2023-05-10T07:29:44.136Z,39.23
2023-05-10T07:30:44.189Z,39.53
2023-05-10T07:31:44.280Z,43.13
2023-05-10T07:32:44.218Z,44.95
2023-05-10T07:33:44.314Z,47.10
2023-05-10T07:34:44.563Z,49.26
2023-05-10T07:35:44.439Z,50.28
2023-05-10T07:36:44.469Z,51.15
2023-05-10T07:37:44.495Z,51.95
2023-05-10T07:38:44.560Z,52.34
2023-05-10T07:39:44.632Z,50.34
2023-05-10T07:40:44.689Z,51.26
2023-05-10T07:41:44.751Z,52.32
2023-05-10T07:42:44.766Z,50.95
2023-05-10T07:43:44.779Z,51.61
2023-05-10T07:44:44.775Z,51.94
2023-05-10T07:45:44.867Z,46.91
2023-05-10T07:46:44.949Z,42.49
2023-05-10T07:47:45.026Z,37.73
2023-05-10T07:48:45.013Z,42.21
2023-05-10T07:49:45.256Z,38.25
2023-05-10T07:50:45.094Z,38.89
2023-05-10T07:51:45.120Z,36.12
2023-05-10T07:52:45.093Z,37.14
2023-05-10T07:53:45.139Z,39.28
2023-05-10T07:54:45.246Z,42.94
2023-05-10T07:55:45.154Z,43.99
2023-05-10T07:56:45.167Z,43.38
2023-05-10T07:57:45.204Z,41.34
2023-05-10T07:58:45.238Z,37.82
2023-05-10T07:59:45.749Z,39.82
2023-05-10T08:00:45.290Z,39.59
2023-05-10T08:01:45.318Z,38.65
2023-05-10T08:02:45.493Z,35.92
2023-05-10T08:03:45.464Z,38.22
2023-05-10T08:04:45.621Z,35.46
2023-05-10T08:05:45.453Z,35.43
2023-05-10T08:06:45.504Z,34.68
2023-05-10T08:07:45.508Z,34.09
2023-05-10T08:08:45.560Z,34.77
2023-05-10T08:09:45.549Z,35.43
2023-05-10T08:10:45.566Z,33.28
2023-05-10T08:11:45.580Z,30.69
2023-05-10T08:12:45.595Z,31.65
2023-05-10T08:13:45.784Z,31.20
2023-05-10T08:14:45.769Z,35.59
2023-05-10T08:15:45.734Z,39.00
2023-05-10T08:16:45.734Z,41.20
2023-05-10T08:17:45.867Z,42.60
2023-05-10T08:18:45.964Z,44.10
2023-05-10T08:19:46.301Z,46.24
2023-05-10T08:20:45.957Z,46.45
2023-05-10T08:21:46.038Z,46.67
2023-05-10T08:22:46.936Z,47.82
2023-05-10T08:23:46.132Z,57.34
2023-05-10T08:24:46.280Z,54.49
2023-05-10T08:25:46.245Z,56.86
2023-05-10T08:26:46.296Z,61.25
2023-05-10T08:27:46.355Z,65.30
2023-05-10T08:28:46.478Z,68.84
2023-05-10T08:29:50.421Z,71.97
2023-05-10T08:30:46.431Z,72.26
2023-05-10T08:31:46.492Z,73.15
2023-05-10T08:32:46.418Z,76.04
2023-05-10T08:33:46.419Z,74.58
2023-05-10T08:34:46.409Z,73.86
2023-05-10T08:35:46.397Z,66.25
2023-05-10T08:36:46.550Z,61.29
2023-05-10T08:37:46.387Z,57.13
2023-05-10T08:38:46.367Z,58.68
2023-05-10T08:39:46.380Z,56.92
2023-05-10T08:40:46.361Z,52.37
2023-05-10T08:41:46.341Z,50.09
2023-05-10T08:42:46.399Z,46.95
2023-05-10T08:43:46.336Z,37.86
2023-05-10T08:44:48.214Z,34.23
2023-05-10T08:45:46.759Z,34.60
2023-05-10T08:46:46.428Z,30.13
2023-05-10T08:47:46.340Z,27.28
2023-05-10T08:48:46.315Z,21.52
2023-05-10T08:49:46.296Z,18.19
2023-05-10T08:50:46.796Z,16.27
2023-05-10T08:51:46.291Z,13.96
2023-05-10T08:52:46.307Z,12.45
2023-05-10T08:53:46.292Z,11.35
2023-05-10T08:54:46.370Z,10.69
2023-05-10T08:55:46.262Z,10.31
2023-05-10T08:56:48.565Z,11.09
2023-05-10T08:57:46.252Z,11.12
2023-05-10T08:58:46.283Z,11.13
2023-05-10T08:59:46.266Z,11.47
2023-05-10T09:00:46.259Z,12.26
2023-05-10T09:01:46.219Z,12.69
2023-05-10T09:02:46.337Z,12.21
2023-05-10T09:03:46.259Z,12.57
2023-05-10T09:04:46.328Z,12.52
2023-05-10T09:05:47.173Z,12.97
2023-05-10T09:06:46.205Z,13.58
2023-05-10T09:07:46.333Z,14.61
2023-05-10T09:08:46.195Z,16.31
2023-05-10T09:09:46.192Z,16.45
2023-05-10T09:10:46.278Z,17.76
2023-05-10T09:11:46.162Z,17.78
2023-05-10T09:12:46.723Z,18.19
2023-05-10T09:13:46.165Z,18.64
2023-05-10T09:14:46.137Z,18.63
2023-05-10T09:15:46.298Z,18.92
2023-05-10T09:16:46.200Z,18.52
2023-05-10T09:17:46.804Z,18.51
2023-05-10T09:18:46.150Z,18.48
2023-05-10T09:19:46.101Z,19.01
2023-05-10T09:20:46.270Z,18.91
2023-05-10T09:21:46.103Z,19.04
2023-05-10T09:22:46.216Z,18.90
2023-05-10T09:23:48.118Z,18.63
2023-05-10T09:24:46.093Z,18.67
2023-05-10T09:25:46.288Z,18.44
2023-05-10T09:26:46.194Z,18.01
2023-05-10T09:27:46.248Z,15.23
2023-05-10T09:28:46.277Z,14.78
2023-05-10T09:29:46.325Z,15.83
2023-05-10T09:30:46.406Z,16.81
2023-05-10T09:31:46.415Z,18.50
2023-05-10T09:32:46.512Z,18.61
2023-05-10T09:33:46.547Z,20.76
2023-05-10T09:34:46.557Z,22.71
2023-05-10T09:35:46.786Z,24.28
2023-05-10T09:36:46.679Z,25.95
2023-05-10T09:37:46.719Z,25.96
2023-05-10T09:38:46.784Z,27.03
2023-05-10T09:39:46.864Z,32.10
2023-05-10T09:40:47.278Z,39.40
2023-05-10T09:41:46.954Z,45.16
2023-05-10T09:42:47.003Z,51.12
2023-05-10T09:43:47.072Z,50.66
2023-05-10T09:44:47.136Z,52.76
2023-05-10T09:45:47.313Z,53.71
2023-05-10T09:46:47.225Z,53.08
2023-05-10T09:47:47.288Z,53.64
2023-05-10T09:48:47.314Z,56.57
2023-05-10T09:49:47.351Z,55.92
2023-05-10T09:50:47.401Z,56.16
2023-05-10T09:51:47.507Z,53.82
2023-05-10T09:52:47.502Z,52.08
2023-05-10T09:53:47.533Z,48.66
2023-05-10T09:54:47.538Z,48.24
2023-05-10T09:55:47.627Z,47.27
2023-05-10T09:56:47.633Z,47.45
2023-05-10T09:57:47.665Z,47.41
2023-05-10T09:58:47.710Z,46.73
2023-05-10T09:59:47.735Z,44.90
2023-05-10T10:00:47.791Z,42.37
2023-05-10T10:01:47.819Z,40.62
2023-05-10T10:02:47.870Z,38.67
2023-05-10T10:03:47.865Z,37.23
2023-05-10T10:04:47.933Z,36.02
2023-05-10T10:05:47.958Z,33.90
2023-05-10T10:06:47.977Z,33.23
2023-05-10T10:07:48.055Z,33.09
2023-05-10T10:08:48.193Z,31.56
2023-05-10T10:09:48.357Z,30.30
2023-05-10T10:10:48.509Z,28.51
2023-05-10T10:11:48.644Z,28.61
2023-05-10T10:12:48.823Z,28.79
2023-05-10T10:13:48.990Z,30.10
2023-05-10T10:14:49.118Z,27.33
2023-05-10T10:15:49.352Z,29.11
2023-05-10T10:17:05.055Z,30.08
2023-05-10T10:17:50.435Z,30.17
2023-05-10T10:18:49.420Z,26.49
2023-05-10T10:19:49.415Z,18.81
2023-05-10T10:20:49.383Z,16.35
2023-05-10T10:21:49.390Z,13.98
2023-05-10T10:22:49.384Z,13.58
2023-05-10T10:23:49.372Z,12.60
2023-05-10T10:24:49.377Z,10.31
2023-05-10T10:25:49.369Z,10.66
2023-05-10T10:26:49.355Z,7.53
2023-05-10T10:27:49.361Z,5.31
2023-05-10T10:28:49.327Z,4.47
2023-05-10T10:29:49.375Z,3.57
2023-05-10T10:30:49.399Z,3.00
2023-05-10T10:31:49.556Z,2.42
2023-05-10T10:32:49.463Z,1.99
2023-05-10T10:33:49.461Z,1.69
2023-05-10T10:34:49.466Z,1.45
2023-05-10T10:35:49.856Z,1.36
2023-05-10T10:36:49.477Z,1.23
2023-05-10T10:37:49.534Z,0.98
2023-05-10T10:38:49.540Z,0.85
2023-05-10T10:39:49.574Z,0.94
2023-05-10T10:40:49.644Z,1.18
2023-05-10T10:41:49.621Z,1.38
2023-05-10T10:42:49.680Z,1.63
2023-05-10T10:43:49.735Z,1.73
2023-05-10T10:44:49.753Z,1.92
2023-05-10T10:45:49.785Z,2.02
2023-05-10T10:46:49.859Z,2.16
2023-05-10T10:47:49.885Z,2.28
2023-05-10T10:48:49.860Z,2.40
2023-05-10T10:49:49.908Z,2.51
2023-05-10T10:50:49.918Z,2.70
2023-05-10T10:51:49.929Z,2.86
2023-05-10T10:52:50.022Z,2.98
2023-05-10T10:53:49.927Z,3.05
2023-05-10T10:54:49.939Z,3.16
2023-05-10T10:55:49.962Z,3.31
2023-05-10T10:56:49.966Z,3.48
2023-05-10T10:57:49.965Z,3.62
2023-05-10T10:58:49.977Z,3.68
2023-05-10T10:59:49.976Z,3.84
2023-05-10T11:00:50.028Z,4.09
2023-05-10T11:01:49.979Z,4.52
2023-05-10T11:02:50.111Z,4.75
2023-05-10T11:03:50.032Z,5.14
2023-05-10T11:04:50.242Z,5.87
2023-05-10T11:05:50.025Z,6.25
2023-05-10T11:06:50.053Z,7.03
2023-05-10T11:07:50.044Z,7.88
2023-05-10T11:08:50.067Z,8.53
2023-05-10T11:09:50.084Z,8.97
2023-05-10T11:10:50.137Z,9.53
2023-05-10T11:11:50.144Z,10.29
2023-05-10T11:12:50.163Z,11.28
2023-05-10T11:13:51.447Z,12.00
2023-05-10T11:14:50.230Z,12.14
2023-05-10T11:15:50.369Z,12.25
2023-05-10T11:16:50.372Z,12.10
2023-05-10T11:17:50.423Z,12.23
2023-05-10T11:18:50.479Z,12.57
2023-05-10T11:19:50.465Z,12.80
2023-05-10T11:20:50.565Z,13.00
2023-05-10T11:21:50.623Z,13.31
2023-05-10T11:22:50.651Z,14.10
2023-05-10T11:23:50.728Z,14.77
2023-05-10T11:24:50.776Z,14.34
2023-05-10T11:25:50.869Z,14.72
2023-05-10T11:26:50.977Z,14.34
2023-05-10T11:27:50.967Z,14.84
2023-05-10T11:28:50.991Z,14.83
2023-05-10T11:29:51.035Z,15.60
2023-05-10T11:30:51.131Z,15.36
2023-05-10T11:31:51.170Z,15.37
2023-05-10T11:32:51.251Z,15.47
2023-05-10T11:33:51.308Z,15.88
2023-05-10T11:34:51.337Z,16.96
2023-05-10T11:35:51.421Z,16.96
2023-05-10T11:36:51.489Z,16.55
2023-05-10T11:37:51.528Z,16.33
2023-05-10T11:38:51.625Z,15.78
2023-05-10T11:39:51.671Z,15.90
2023-05-10T11:40:51.740Z,16.24
2023-05-10T11:41:51.803Z,15.82
2023-05-10T11:42:51.866Z,15.84
2023-05-10T11:43:51.934Z,15.85
2023-05-10T11:44:52.012Z,15.89
2023-05-10T11:45:52.100Z,15.37
2023-05-10T11:46:52.119Z,15.49
2023-05-10T11:47:52.152Z,15.70
2023-05-10T11:48:52.171Z,15.47
2023-05-10T11:49:52.220Z,15.04
2023-05-10T11:50:52.276Z,14.88
2023-05-10T11:51:52.364Z,14.35
2023-05-10T11:52:52.400Z,14.43
2023-05-10T11:53:52.469Z,14.42
2023-05-10T11:54:52.529Z,14.30
2023-05-10T11:55:52.588Z,14.30
2023-05-10T11:56:52.650Z,13.70
2023-05-10T11:57:52.682Z,13.89
2023-05-10T11:58:52.698Z,13.10
2023-05-10T11:59:52.760Z,13.13
2023-05-10T12:00:52.797Z,13.33
2023-05-10T12:01:52.891Z,13.13
2023-05-10T12:02:52.947Z,13.46
2023-05-10T12:03:53.073Z,13.40
2023-05-10T12:04:53.094Z,13.02
2023-05-10T12:05:53.067Z,12.73
2023-05-10T12:06:53.376Z,12.72
2023-05-10T12:07:53.132Z,12.97
2023-05-10T12:08:53.213Z,12.65
2023-05-10T12:09:53.220Z,12.20
2023-05-10T12:10:53.250Z,11.70
2023-05-10T12:11:53.344Z,11.30
2023-05-10T12:12:53.348Z,11.38
2023-05-10T12:13:53.368Z,11.75
2023-05-10T12:14:53.406Z,11.60
2023-05-10T12:15:53.539Z,11.43
2023-05-10T12:16:53.887Z,11.15
2023-05-10T12:17:53.584Z,11.16
2023-05-10T12:18:53.651Z,10.78
2023-05-10T12:19:53.569Z,10.55
2023-05-10T12:20:53.601Z,10.24
2023-05-10T12:21:53.620Z,10.09
2023-05-10T12:22:53.688Z,10.03
2023-05-10T12:23:53.685Z,10.15
2023-05-10T12:24:53.709Z,10.06
2023-05-10T12:25:53.751Z,9.87
2023-05-10T12:26:53.732Z,9.66
2023-05-10T12:27:53.755Z,9.38
2023-05-10T12:28:53.761Z,9.26
2023-05-10T12:29:53.805Z,9.10
2023-05-10T12:30:53.809Z,9.34
2023-05-10T12:31:53.877Z,9.06
2023-05-10T12:32:53.878Z,9.21
2023-05-10T12:33:53.932Z,8.95
2023-05-10T12:34:53.928Z,8.94
2023-05-10T12:35:53.931Z,9.21
2023-05-10T12:36:54.027Z,8.83
2023-05-10T12:37:54.070Z,8.63
2023-05-10T12:38:54.017Z,8.88
2023-05-10T12:39:54.058Z,8.51
2023-05-10T12:40:54.090Z,8.63
2023-05-10T12:41:54.096Z,8.72
2023-05-10T12:42:54.122Z,8.39
2023-05-10T12:43:54.117Z,8.31
2023-05-10T12:44:54.125Z,8.52
2023-05-10T12:45:54.268Z,8.58
2023-05-10T12:46:54.392Z,8.54
2023-05-10T12:47:54.265Z,8.68
2023-05-10T12:49:06.825Z,8.63
2023-05-10T12:49:55.281Z,8.65
2023-05-10T12:50:54.268Z,8.71
2023-05-10T12:51:54.267Z,8.44
2023-05-10T12:52:54.235Z,8.34
2023-05-10T12:53:54.243Z,8.31
2023-05-10T12:54:54.239Z,8.10
2023-05-10T12:55:54.228Z,8.30
2023-05-10T12:56:54.218Z,8.27